Kineshma, Russia
Current Conditions -  °F | °C
As of 10:00 PM on Friday 21 Nov 2014 (Local Time) from UUDL Reporting Station
Haze Haze  
Wind Chill: 21°   Ceiling: 200
Heat Index: 21°   Visibility: 2.8mi
Dew Point: 19°   Wind: 0mph
Humidity: 93%   Direction: NA
Pressure: 30.48"   Gusts: NA
Location:  57.44°N, 42.13°E
Report Text: UUDL 211900Z 00000MPS 4500 BR OVC002 M06/M07 Q1032 NOSIG RMKQBB060 QFE765 23000060
Loading
Personal Weather Stations






























Interactive Weather Map New forecast layout! Learn more

10-Day Weather Forecast

Advertisements
Track Severe Weather on mobile